HorshamWeather.Com Historical Data
 
Daily Summary for October 31, 2014 Units:  English    Metric   Both
« Previous Day
Next Day »
Daily Weekly Monthly Yearly Custom
  Current: High: Low: Average:
Temperature: 34.6 °F 37.8 °F 34.4 °F 36 °F
Dew Point: 32.8 °F 34.9 °F 32.3 °F 33.5 °F
Humidity: 93% 93% 88% 91%
Wind Speed: 0.0mph 1.0mph 0.0mph 1mph
Wind Gust: 1.0mph 3.0mph - -
WindCalm - - SSW
Pressure: 30.03 in 30.05 in 30.03 in -
Precipitation: 0.00 in      
Historical Graphs
 
 
Tabular Data for October 31, 2014
Time Temperature Dew Point Pressure Wind Wind Speed Wind Gust Humidity Rainfall Rate (Hourly)
00:02 37.8 °F 34.6 °F 30.04 in Calm     88% 0.00 in
00:07 37.7 °F 34.5 °F 30.04 in Calm   1.0 mph 88% 0.00 in
00:12 37.6 °F 34.4 °F 30.05 in Calm     88% 0.00 in
00:17 37.5 °F 34.6 °F 30.04 in Calm     89% 0.00 in
00:22 37.4 °F 34.5 °F 30.04 in North 1.0 mph 1.0 mph 89% 0.00 in
00:27 37.4 °F 34.5 °F 30.04 in Calm   1.0 mph 89% 0.00 in
00:32 37.4 °F 34.5 °F 30.04 in Calm     89% 0.00 in
00:37 37.3 °F 34.4 °F 30.05 in Calm     89% 0.00 in
00:42 37.3 °F 34.4 °F 30.04 in North 1.0 mph 1.0 mph 89% 0.00 in
00:47 37.4 °F 34.7 °F 30.04 in Calm   1.0 mph 90% 0.00 in
00:52 37.4 °F 34.7 °F 30.05 in North 1.0 mph 1.0 mph 90% 0.00 in
00:57 37.5 °F 34.8 °F 30.05 in Calm   2.0 mph 90% 0.00 in
01:02 37.6 °F 34.9 °F 30.05 in North 1.0 mph 1.0 mph 90% 0.00 in
01:07 37.6 °F 34.7 °F 30.05 in Calm   1.0 mph 89% 0.00 in
01:12 37.6 °F 34.7 °F 30.05 in Calm     89% 0.00 in
01:17 37.6 °F 34.7 °F 30.05 in North 1.0 mph 1.0 mph 89% 0.00 in
01:22 37.5 °F 34.6 °F 30.05 in Calm     89% 0.00 in
01:27 37.4 °F 34.5 °F 30.05 in Calm     89% 0.00 in
01:32 37.3 °F 34.4 °F 30.04 in Calm   1.0 mph 89% 0.00 in
01:37 37.2 °F 34.3 °F 30.04 in Calm   1.0 mph 89% 0.00 in
01:42 37.1 °F 34.4 °F 30.04 in Calm   2.0 mph 90% 0.00 in
01:47 37.0 °F 34.3 °F 30.04 in Calm   1.0 mph 90% 0.00 in
01:52 37.0 °F 34.3 °F 30.04 in Calm     90% 0.00 in
01:57 37.0 °F 34.3 °F 30.04 in Calm     90% 0.00 in
02:02 36.8 °F 34.2 °F 30.04 in Calm   1.0 mph 90% 0.00 in
02:07 36.7 °F 34.0 °F 30.04 in Calm     90% 0.00 in
02:12 36.5 °F 33.8 °F 30.05 in Calm     90% 0.00 in
02:17 36.4 °F 33.8 °F 30.05 in Calm     90% 0.00 in
02:22 36.2 °F 33.6 °F 30.05 in Calm   1.0 mph 90% 0.00 in
02:27 36.1 °F 33.5 °F 30.04 in Calm     90% 0.00 in
02:32 36.0 °F 33.4 °F 30.05 in WNW 1.0 mph 1.0 mph 90% 0.00 in
02:37 35.9 °F 33.3 °F 30.05 in Calm     90% 0.00 in
02:42 35.7 °F 33.1 °F 30.05 in Calm     90% 0.00 in
02:47 35.6 °F 33.0 °F 30.05 in Calm     90% 0.00 in
02:52 35.5 °F 32.9 °F 30.04 in Calm     90% 0.00 in
02:57 35.3 °F 32.9 °F 30.04 in Calm     91% 0.00 in
03:02 35.3 °F 33.2 °F 30.04 in Calm   1.0 mph 92% 0.00 in
03:07 35.4 °F 33.3 °F 30.04 in WNW 1.0 mph 1.0 mph 92% 0.00 in
03:12 35.5 °F 33.4 °F 30.03 in WNW 1.0 mph 1.0 mph 92% 0.00 in
03:17 35.5 °F 33.4 °F 30.03 in Calm   1.0 mph 92% 0.00 in
03:22 35.5 °F 33.4 °F 30.03 in Calm     92% 0.00 in
03:27 35.4 °F 33.3 °F 30.03 in Calm     92% 0.00 in
03:32 35.3 °F 33.2 °F 30.03 in Calm     92% 0.00 in
03:37 35.3 °F 33.2 °F 30.03 in Calm     92% 0.00 in
03:42 35.2 °F 33.1 °F 30.03 in Calm   1.0 mph 92% 0.00 in
03:47 35.2 °F 33.1 °F 30.03 in Calm   1.0 mph 92% 0.00 in
03:52 35.1 °F 33.0 °F 30.03 in Calm     92% 0.00 in
03:57 35.0 °F 32.9 °F 30.03 in WNW 1.0 mph 1.0 mph 92% 0.00 in
04:02 35.0 °F 33.2 °F 30.03 in WNW 1.0 mph 1.0 mph 93% 0.00 in
04:07 35.1 °F 33.3 °F 30.03 in WNW 1.0 mph 2.0 mph 93% 0.00 in
04:12 35.3 °F 33.5 °F 30.03 in Calm   1.0 mph 93% 0.00 in
04:17 35.3 °F 33.2 °F 30.03 in WNW 1.0 mph 2.0 mph 92% 0.00 in
04:22 35.5 °F 33.4 °F 30.03 in WNW 1.0 mph 1.0 mph 92% 0.00 in
04:27 35.6 °F 33.5 °F 30.03 in WNW 1.0 mph 1.0 mph 92% 0.00 in
04:32 35.6 °F 33.5 °F 30.03 in Calm   1.0 mph 92% 0.00 in
04:37 35.5 °F 33.1 °F 30.03 in Calm   1.0 mph 91% 0.00 in
04:42 35.5 °F 33.4 °F 30.03 in Calm   1.0 mph 92% 0.00 in
04:47 35.6 °F 33.5 °F 30.03 in Calm   3.0 mph 92% 0.00 in
04:52 35.5 °F 33.1 °F 30.03 in Calm     91% 0.00 in
04:57 35.4 °F 33.0 °F 30.03 in Calm   1.0 mph 91% 0.00 in
05:02 35.3 °F 32.9 °F 30.03 in NW 1.0 mph 1.0 mph 91% 0.00 in
05:07 35.2 °F 32.8 °F 30.03 in Calm   1.0 mph 91% 0.00 in
05:12 35.1 °F 32.7 °F 30.03 in Calm   1.0 mph 91% 0.00 in
05:17 35.0 °F 32.6 °F 30.03 in Calm   1.0 mph 91% 0.00 in
05:22 34.9 °F 32.5 °F 30.03 in Calm     91% 0.00 in
05:27 34.8 °F 32.5 °F 30.03 in Calm   1.0 mph 91% 0.00 in
05:32 34.6 °F 32.5 °F 30.03 in Calm   1.0 mph 92% 0.00 in
05:37 34.6 °F 32.5 °F 30.04 in Calm   1.0 mph 92% 0.00 in
05:42 34.5 °F 32.4 °F 30.04 in Calm     92% 0.00 in
05:47 34.4 °F 32.3 °F 30.04 in Calm   1.0 mph 92% 0.00 in
05:52 34.4 °F 32.6 °F 30.03 in Calm   1.0 mph 93% 0.00 in
05:57 34.5 °F 32.7 °F 30.03 in Calm   1.0 mph 93% 0.00 in
06:02 34.5 °F 32.7 °F 30.03 in Calm   2.0 mph 93% 0.00 in
06:07 34.6 °F 32.8 °F 30.03 in Calm     93% 0.00 in
06:12 34.6 °F 32.8 °F 30.03 in Calm     93% 0.00 in
06:17 34.6 °F 32.5 °F 30.03 in NW 1.0 mph 2.0 mph 92% 0.00 in
06:22 34.6 °F 32.8 °F 30.03 in Calm   1.0 mph 93% 0.00 in
HorshamWeather.Com
Compliments of Weather Underground